Time;durP1;ratioP1;P1;durP2;ratioP2;P2;SDS_P1;SDS_P2;PMS_P1;PMS_P2;Temp;Humidity;BMP_temperature;BMP_pressure;BME280_temperature;BME280_humidity;BME280_pressure;Samples;Min_cycle;Max_cycle;Signal;HPM_P1;HPM_P2
2023/01/20 00:06:45;;;;;;;54.90;27.40;;;1.90;99.90;;;;;;6155913;22;20234;-84
2023/01/20 00:30:13;;;;;;;56.60;27.97;;;1.80;99.90;;;;;;6127693;23;20188;-84
2023/01/20 00:55:57;;;;;;;56.40;26.60;;;1.50;99.90;;;;;;5925647;24;20419;-84
2023/01/20 01:16:06;;;;;;;57.00;25.80;;;1.40;99.90;;;;;;5937097;23;20198;-86
2023/01/20 01:56:44;;;;;;;44.70;22.57;;;1.50;99.90;;;;;;6091690;22;20195;-86
2023/01/20 02:01:04;;;;;;;49.77;23.43;;;1.50;99.90;;;;;;6060800;23;20611;-84
2023/01/20 02:26:44;;;;;;;49.67;22.40;;;1.40;99.90;;;;;;5959571;23;20183;-85
2023/01/20 03:07:00;;;;;;;67.50;25.97;;;1.70;99.90;;;;;;5925690;23;20259;-84
2023/01/20 03:17:39;;;;;;;64.63;24.83;;;1.50;99.90;;;;;;6150848;22;20186;-83
2023/01/20 03:58:16;;;;;;;72.43;28.50;;;1.80;99.90;;;;;;6216846;22;20212;-86
2023/01/20 04:28:38;;;;;;;77.77;29.60;;;1.90;99.90;;;;;;6023653;23;21187;-83
2023/01/20 04:49:02;;;;;;;62.47;23.73;;;2.00;99.90;;;;;;6164673;23;20214;-83
2023/01/20 06:03:34;;;;;;;47.33;21.03;;;2.20;99.90;;;;;;5788649;24;20659;-83
2023/01/20 06:28:45;;;;;;;49.60;20.90;;;2.10;99.90;;;;;;6140474;22;20219;-80
2023/01/20 07:04:18;;;;;;;62.20;24.00;;;2.10;99.90;;;;;;5824378;24;20186;-83
2023/01/20 07:29:26;;;;;;;61.03;25.37;;;2.10;99.90;;;;;;6161753;22;20203;-84
2023/01/20 09:19:18;;;;;;;40.30;17.80;;;3.30;99.90;;;;;;6145126;23;20760;-83
2023/01/20 09:54:25;;;;;;;35.10;16.40;;;3.20;99.90;;;;;;6060457;23;20478;-85
2023/01/20 10:20:14;;;;;;;36.37;16.90;;;3.20;99.90;;;;;;6062587;23;20247;-85
2023/01/20 10:34:54;;;;;;;34.20;18.05;;;2.90;99.90;;;;;;6160131;22;21581;-80
2023/01/20 11:42:21;;;;;;;29.30;14.63;;;3.60;99.90;;;;;;5853333;24;20578;-80
2023/01/20 12:17:42;;;;;;;31.30;16.60;;;3.20;99.90;;;;;;5684466;24;20785;-85
2023/01/20 12:53:37;;;;;;;32.67;16.33;;;2.40;99.90;;;;;;5880140;24;20183;-81
2023/01/20 14:19:08;;;;;;;18.23;11.07;;;2.30;99.90;;;;;;5917115;23;20190;-82
2023/01/20 14:50:15;;;;;;;16.83;10.33;;;2.20;99.90;;;;;;6073845;23;20569;-84
2023/01/20 14:54:35;;;;;;;26.87;15.03;;;2.20;99.90;;;;;;6049076;23;20542;-82
2023/01/20 15:15:30;;;;;;;27.40;14.80;;;2.10;99.90;;;;;;5970457;23;20177;-83
2023/01/20 15:55:32;;;;;;;29.10;15.17;;;2.10;99.90;;;;;;5988812;23;20421;-85
2023/01/20 16:26:11;;;;;;;20.37;11.73;;;2.00;99.90;;;;;;5942845;23;20716;-83
2023/01/20 17:07:04;;;;;;;23.63;13.27;;;1.70;99.90;;;;;;5811031;24;20242;-84
2023/01/20 17:42:33;;;;;;;21.90;12.30;;;1.60;99.90;;;;;;5840705;24;20203;-83
2023/01/20 18:12:56;;;;;;;21.17;12.23;;;1.70;99.90;;;;;;5848056;23;20189;-83
2023/01/20 18:38:16;;;;;;;15.00;10.53;;;1.80;99.90;;;;;;5981072;23;20281;-82
2023/01/20 19:13:42;;;;;;;15.77;10.07;;;1.90;99.90;;;;;;6175388;22;20162;-83
2023/01/20 19:38:23;;;;;;;12.23;9.00;;;2.00;99.90;;;;;;5886568;24;20281;-85
2023/01/20 20:03:59;;;;;;;15.47;8.87;;;2.00;99.90;;;;;;5762923;24;20582;-83
2023/01/20 20:49:49;;;;;;;14.63;9.00;;;2.00;99.90;;;;;;5942657;23;20208;-83
2023/01/20 21:15:22;;;;;;;8.33;6.27;;;1.90;99.90;;;;;;6036164;23;20168;-83
2023/01/20 22:21:03;;;;;;;11.47;6.20;;;1.80;99.90;;;;;;5856101;24;20196;-84
2023/01/20 22:51:26;;;;;;;8.87;6.67;;;1.90;99.90;;;;;;5883007;24;20361;-84
2023/01/20 23:21:56;;;;;;;11.20;8.27;;;1.70;99.90;;;;;;5897624;24;20356;-83
2023/01/20 23:47:23;;;;;;;15.23;10.50;;;1.70;99.90;;;;;;5756067;24;20182;-81
